sensor_id;sensor_type;location;lat;lon;timestamp;P1;durP1;ratioP1;P2;durP2;ratioP2
48588;SDS011;34369;51.174;6.738;2024-03-23T00:52:26;43.37;;;40.13;;
48588;SDS011;34369;51.174;6.738;2024-03-23T00:55:16;43.70;;;40.70;;
48588;SDS011;34369;51.174;6.738;2024-03-23T00:58:05;44.63;;;41.50;;
48588;SDS011;34369;51.174;6.738;2024-03-23T01:01:11;43.03;;;40.13;;
48588;SDS011;34369;51.174;6.738;2024-03-23T01:04:23;46.35;;;43.13;;
48588;SDS011;34369;51.174;6.738;2024-03-23T01:10:55;46.20;;;42.93;;
48588;SDS011;34369;51.174;6.738;2024-03-23T01:13:47;46.17;;;42.63;;
48588;SDS011;34369;51.174;6.738;2024-03-23T01:16:38;47.60;;;44.10;;
48588;SDS011;34369;51.174;6.738;2024-03-23T01:19:26;47.37;;;43.97;;
48588;SDS011;34369;51.174;6.738;2024-03-23T01:22:14;43.87;;;40.57;;
48588;SDS011;34369;51.174;6.738;2024-03-23T01:25:16;45.40;;;42.10;;
48588;SDS011;34369;51.174;6.738;2024-03-23T01:28:11;44.80;;;41.33;;
48588;SDS011;34369;51.174;6.738;2024-03-23T01:31:00;44.17;;;40.97;;
48588;SDS011;34369;51.174;6.738;2024-03-23T01:34:24;41.20;;;38.50;;
48588;SDS011;34369;51.174;6.738;2024-03-23T01:37:30;42.43;;;39.73;;
48588;SDS011;34369;51.174;6.738;2024-03-23T01:44:20;41.87;;;39.27;;
48588;SDS011;34369;51.174;6.738;2024-03-23T01:47:26;40.77;;;38.17;;
48588;SDS011;34369;51.174;6.738;2024-03-23T01:50:30;42.57;;;39.87;;
48588;SDS011;34369;51.174;6.738;2024-03-23T01:53:40;44.40;;;41.60;;
48588;SDS011;34369;51.174;6.738;2024-03-23T01:56:58;41.50;;;38.80;;
48588;SDS011;34369;51.174;6.738;2024-03-23T02:00:08;41.87;;;39.23;;
48588;SDS011;34369;51.174;6.738;2024-03-23T02:03:28;41.00;;;38.43;;
48588;SDS011;34369;51.174;6.738;2024-03-23T02:06:40;41.53;;;38.93;;
48588;SDS011;34369;51.174;6.738;2024-03-23T02:09:49;42.33;;;39.63;;
48588;SDS011;34369;51.174;6.738;2024-03-23T02:16:26;43.80;;;41.00;;
48588;SDS011;34369;51.174;6.738;2024-03-23T02:19:34;42.57;;;39.90;;
48588;SDS011;34369;51.174;6.738;2024-03-23T02:25:54;40.40;;;37.83;;
48588;SDS011;34369;51.174;6.738;2024-03-23T02:29:15;43.30;;;40.30;;
48588;SDS011;34369;51.174;6.738;2024-03-23T03:08:17;41.90;;;39.27;;
48588;SDS011;34369;51.174;6.738;2024-03-23T03:11:16;41.57;;;39.07;;
48588;SDS011;34369;51.174;6.738;2024-03-23T03:14:41;41.97;;;39.27;;
48588;SDS011;34369;51.174;6.738;2024-03-23T03:17:54;41.20;;;38.40;;
48588;SDS011;34369;51.174;6.738;2024-03-23T03:21:11;41.23;;;38.43;;
48588;SDS011;34369;51.174;6.738;2024-03-23T03:23:46;42.27;;;39.53;;
48588;SDS011;34369;51.174;6.738;2024-03-23T03:26:20;43.40;;;40.42;;
48588;SDS011;34369;51.174;6.738;2024-03-23T03:28:54;42.10;;;39.30;;
48588;SDS011;34369;51.174;6.738;2024-03-23T03:31:29;41.17;;;38.50;;
48588;SDS011;34369;51.174;6.738;2024-03-23T03:34:01;41.20;;;38.53;;
48588;SDS011;34369;51.174;6.738;2024-03-23T03:36:34;42.53;;;39.93;;
48588;SDS011;34369;51.174;6.738;2024-03-23T03:39:08;41.83;;;39.20;;
48588;SDS011;34369;51.174;6.738;2024-03-23T03:41:41;42.13;;;39.50;;
48588;SDS011;34369;51.174;6.738;2024-03-23T03:44:13;41.77;;;39.13;;
48588;SDS011;34369;51.174;6.738;2024-03-23T03:46:48;40.83;;;38.37;;
48588;SDS011;34369;51.174;6.738;2024-03-23T03:49:21;41.40;;;38.80;;
48588;SDS011;34369;51.174;6.738;2024-03-23T03:51:55;41.47;;;38.83;;
48588;SDS011;34369;51.174;6.738;2024-03-23T03:54:34;41.97;;;39.33;;
48588;SDS011;34369;51.174;6.738;2024-03-23T03:57:08;41.13;;;38.53;;
48588;SDS011;34369;51.174;6.738;2024-03-23T03:59:40;42.27;;;39.57;;
48588;SDS011;34369;51.174;6.738;2024-03-23T04:02:15;42.27;;;39.57;;
48588;SDS011;34369;51.174;6.738;2024-03-23T04:04:48;40.80;;;38.13;;
48588;SDS011;34369;51.174;6.738;2024-03-23T04:07:21;41.40;;;38.90;;
48588;SDS011;34369;51.174;6.738;2024-03-23T04:09:56;42.53;;;39.73;;
48588;SDS011;34369;51.174;6.738;2024-03-23T04:12:29;42.17;;;39.20;;
48588;SDS011;34369;51.174;6.738;2024-03-23T04:15:03;41.37;;;38.77;;
48588;SDS011;34369;51.174;6.738;2024-03-23T04:17:38;42.00;;;39.50;;
48588;SDS011;34369;51.174;6.738;2024-03-23T04:20:13;39.50;;;37.03;;
48588;SDS011;34369;51.174;6.738;2024-03-23T04:22:47;42.40;;;39.53;;
48588;SDS011;34369;51.174;6.738;2024-03-23T04:25:22;41.60;;;38.57;;
48588;SDS011;34369;51.174;6.738;2024-03-23T04:27:56;43.30;;;40.23;;
48588;SDS011;34369;51.174;6.738;2024-03-23T04:30:28;42.43;;;39.73;;
48588;SDS011;34369;51.174;6.738;2024-03-23T04:33:02;42.23;;;39.23;;
48588;SDS011;34369;51.174;6.738;2024-03-23T04:35:36;40.57;;;38.07;;
48588;SDS011;34369;51.174;6.738;2024-03-23T04:38:09;41.90;;;39.07;;
48588;SDS011;34369;51.174;6.738;2024-03-23T04:40:45;41.97;;;39.20;;
48588;SDS011;34369;51.174;6.738;2024-03-23T04:43:27;43.60;;;40.93;;
48588;SDS011;34369;51.174;6.738;2024-03-23T04:46:01;43.10;;;40.37;;
48588;SDS011;34369;51.174;6.738;2024-03-23T04:48:36;42.50;;;39.83;;
48588;SDS011;34369;51.174;6.738;2024-03-23T04:51:10;43.00;;;40.20;;
48588;SDS011;34369;51.174;6.738;2024-03-23T04:53:45;41.83;;;39.03;;
48588;SDS011;34369;51.174;6.738;2024-03-23T04:56:21;44.50;;;41.70;;
48588;SDS011;34369;51.174;6.738;2024-03-23T04:58:55;42.67;;;40.03;;
48588;SDS011;34369;51.174;6.738;2024-03-23T05:01:31;41.92;;;39.33;;
48588;SDS011;34369;51.174;6.738;2024-03-23T05:04:05;41.83;;;39.00;;
48588;SDS011;34369;51.174;6.738;2024-03-23T05:06:38;42.40;;;39.50;;
48588;SDS011;34369;51.174;6.738;2024-03-23T05:09:11;42.67;;;39.57;;
48588;SDS011;34369;51.174;6.738;2024-03-23T05:11:45;44.10;;;41.17;;
48588;SDS011;34369;51.174;6.738;2024-03-23T05:14:19;44.03;;;41.23;;
48588;SDS011;34369;51.174;6.738;2024-03-23T05:16:51;44.00;;;41.20;;
48588;SDS011;34369;51.174;6.738;2024-03-23T05:19:24;43.13;;;40.43;;
48588;SDS011;34369;51.174;6.738;2024-03-23T05:21:57;44.13;;;40.83;;
48588;SDS011;34369;51.174;6.738;2024-03-23T05:24:31;43.87;;;40.73;;
48588;SDS011;34369;51.174;6.738;2024-03-23T05:27:05;44.77;;;41.67;;
48588;SDS011;34369;51.174;6.738;2024-03-23T05:29:39;46.97;;;43.83;;
48588;SDS011;34369;51.174;6.738;2024-03-23T05:32:11;43.27;;;40.27;;
48588;SDS011;34369;51.174;6.738;2024-03-23T05:34:45;44.80;;;41.60;;
48588;SDS011;34369;51.174;6.738;2024-03-23T05:37:17;43.57;;;40.60;;
48588;SDS011;34369;51.174;6.738;2024-03-23T05:39:50;44.90;;;41.70;;
48588;SDS011;34369;51.174;6.738;2024-03-23T05:42:24;44.47;;;41.67;;
48588;SDS011;34369;51.174;6.738;2024-03-23T05:44:59;46.27;;;43.57;;
48588;SDS011;34369;51.174;6.738;2024-03-23T05:47:37;44.27;;;41.27;;
48588;SDS011;34369;51.174;6.738;2024-03-23T05:50:11;44.03;;;40.87;;
48588;SDS011;34369;51.174;6.738;2024-03-23T05:52:43;46.33;;;43.00;;
48588;SDS011;34369;51.174;6.738;2024-03-23T05:55:17;44.33;;;41.07;;
48588;SDS011;34369;51.174;6.738;2024-03-23T05:57:52;47.70;;;44.50;;
48588;SDS011;34369;51.174;6.738;2024-03-23T06:00:26;45.30;;;42.42;;
48588;SDS011;34369;51.174;6.738;2024-03-23T06:03:00;43.47;;;40.50;;
48588;SDS011;34369;51.174;6.738;2024-03-23T06:05:34;44.40;;;41.30;;
48588;SDS011;34369;51.174;6.738;2024-03-23T06:08:06;43.10;;;40.20;;
48588;SDS011;34369;51.174;6.738;2024-03-23T06:10:43;43.97;;;41.07;;
48588;SDS011;34369;51.174;6.738;2024-03-23T06:13:18;43.10;;;39.97;;
48588;SDS011;34369;51.174;6.738;2024-03-23T06:16:00;44.17;;;41.23;;
48588;SDS011;34369;51.174;6.738;2024-03-23T06:18:32;45.57;;;42.20;;
48588;SDS011;34369;51.174;6.738;2024-03-23T06:21:08;43.40;;;40.30;;
48588;SDS011;34369;51.174;6.738;2024-03-23T06:23:45;44.00;;;41.00;;
48588;SDS011;34369;51.174;6.738;2024-03-23T06:26:21;44.33;;;41.47;;
48588;SDS011;34369;51.174;6.738;2024-03-23T06:28:55;44.50;;;41.40;;
48588;SDS011;34369;51.174;6.738;2024-03-23T06:31:29;46.28;;;43.38;;
48588;SDS011;34369;51.174;6.738;2024-03-23T06:34:02;44.10;;;40.80;;
48588;SDS011;34369;51.174;6.738;2024-03-23T06:36:35;45.40;;;42.30;;
48588;SDS011;34369;51.174;6.738;2024-03-23T06:39:09;44.60;;;41.53;;
48588;SDS011;34369;51.174;6.738;2024-03-23T06:41:52;47.70;;;44.65;;
48588;SDS011;34369;51.174;6.738;2024-03-23T06:44:27;47.80;;;44.50;;
48588;SDS011;34369;51.174;6.738;2024-03-23T06:47:02;46.43;;;43.23;;
48588;SDS011;34369;51.174;6.738;2024-03-23T06:49:35;46.63;;;43.27;;
48588;SDS011;34369;51.174;6.738;2024-03-23T06:52:08;46.00;;;42.90;;
48588;SDS011;34369;51.174;6.738;2024-03-23T06:54:41;46.27;;;43.17;;
48588;SDS011;34369;51.174;6.738;2024-03-23T06:57:15;45.47;;;42.20;;
48588;SDS011;34369;51.174;6.738;2024-03-23T06:59:49;44.20;;;41.30;;
48588;SDS011;34369;51.174;6.738;2024-03-23T07:02:23;43.67;;;40.35;;
48588;SDS011;34369;51.174;6.738;2024-03-23T07:04:55;44.47;;;41.23;;
48588;SDS011;34369;51.174;6.738;2024-03-23T07:07:29;43.43;;;40.40;;
48588;SDS011;34369;51.174;6.738;2024-03-23T07:10:02;45.83;;;42.63;;
48588;SDS011;34369;51.174;6.738;2024-03-23T07:12:37;45.25;;;42.10;;
48588;SDS011;34369;51.174;6.738;2024-03-23T07:15:12;42.67;;;39.77;;
48588;SDS011;34369;51.174;6.738;2024-03-23T07:17:46;45.20;;;42.38;;
48588;SDS011;34369;51.174;6.738;2024-03-23T07:20:19;43.67;;;40.50;;
48588;SDS011;34369;51.174;6.738;2024-03-23T07:22:52;42.90;;;39.83;;
48588;SDS011;34369;51.174;6.738;2024-03-23T07:25:27;42.13;;;39.20;;
48588;SDS011;34369;51.174;6.738;2024-03-23T07:28:02;41.47;;;38.40;;
48588;SDS011;34369;51.174;6.738;2024-03-23T07:30:37;43.90;;;40.80;;
48588;SDS011;34369;51.174;6.738;2024-03-23T07:33:11;42.65;;;39.65;;
48588;SDS011;34369;51.174;6.738;2024-03-23T07:35:44;43.57;;;40.47;;
48588;SDS011;34369;51.174;6.738;2024-03-23T07:38:17;41.13;;;38.17;;
48588;SDS011;34369;51.174;6.738;2024-03-23T07:40:49;44.37;;;41.00;;
48588;SDS011;34369;51.174;6.738;2024-03-23T07:43:26;42.45;;;39.25;;
48588;SDS011;34369;51.174;6.738;2024-03-23T07:46:00;44.33;;;41.07;;
48588;SDS011;34369;51.174;6.738;2024-03-23T07:48:35;42.75;;;39.60;;
48588;SDS011;34369;51.174;6.738;2024-03-23T07:51:09;42.03;;;39.23;;
48588;SDS011;34369;51.174;6.738;2024-03-23T07:53:48;42.83;;;39.70;;
48588;SDS011;34369;51.174;6.738;2024-03-23T07:56:21;43.93;;;40.93;;
48588;SDS011;34369;51.174;6.738;2024-03-23T07:58:54;43.13;;;40.33;;
48588;SDS011;34369;51.174;6.738;2024-03-23T08:01:30;44.40;;;41.10;;
48588;SDS011;34369;51.174;6.738;2024-03-23T08:04:04;42.38;;;39.22;;
48588;SDS011;34369;51.174;6.738;2024-03-23T08:06:38;44.23;;;41.10;;
48588;SDS011;34369;51.174;6.738;2024-03-23T08:09:12;42.90;;;40.00;;
48588;SDS011;34369;51.174;6.738;2024-03-23T08:11:44;42.83;;;39.67;;
48588;SDS011;34369;51.174;6.738;2024-03-23T08:14:19;42.75;;;39.95;;
48588;SDS011;34369;51.174;6.738;2024-03-23T08:16:53;41.55;;;38.75;;
48588;SDS011;34369;51.174;6.738;2024-03-23T08:19:28;41.58;;;38.67;;
48588;SDS011;34369;51.174;6.738;2024-03-23T08:22:00;39.83;;;37.13;;
48588;SDS011;34369;51.174;6.738;2024-03-23T08:24:34;40.30;;;37.70;;
48588;SDS011;34369;51.174;6.738;2024-03-23T08:27:06;42.05;;;38.90;;
48588;SDS011;34369;51.174;6.738;2024-03-23T08:29:40;40.17;;;37.65;;
48588;SDS011;34369;51.174;6.738;2024-03-23T08:32:15;38.33;;;35.55;;
48588;SDS011;34369;51.174;6.738;2024-03-23T08:34:49;41.15;;;38.45;;
48588;SDS011;34369;51.174;6.738;2024-03-23T08:37:24;40.03;;;37.22;;
48588;SDS011;34369;51.174;6.738;2024-03-23T08:39:58;39.80;;;37.00;;
48588;SDS011;34369;51.174;6.738;2024-03-23T08:42:31;39.70;;;36.90;;
48588;SDS011;34369;51.174;6.738;2024-03-23T08:45:06;38.92;;;36.13;;
48588;SDS011;34369;51.174;6.738;2024-03-23T08:47:40;39.78;;;36.78;;
48588;SDS011;34369;51.174;6.738;2024-03-23T08:50:14;39.20;;;36.57;;
48588;SDS011;34369;51.174;6.738;2024-03-23T08:52:50;39.70;;;36.80;;
48588;SDS011;34369;51.174;6.738;2024-03-23T08:55:23;39.78;;;37.08;;
48588;SDS011;34369;51.174;6.738;2024-03-23T08:57:57;40.28;;;37.72;;
48588;SDS011;34369;51.174;6.738;2024-03-23T09:00:31;39.97;;;36.97;;
48588;SDS011;34369;51.174;6.738;2024-03-23T09:05:42;40.13;;;37.53;;
48588;SDS011;34369;51.174;6.738;2024-03-23T09:08:22;40.58;;;37.78;;
48588;SDS011;34369;51.174;6.738;2024-03-23T09:20:43;39.40;;;36.67;;
48588;SDS011;34369;51.174;6.738;2024-03-23T09:24:14;40.90;;;38.08;;
48588;SDS011;34369;51.174;6.738;2024-03-23T09:26:47;40.47;;;37.75;;
48588;SDS011;34369;51.174;6.738;2024-03-23T09:29:21;40.95;;;37.70;;
48588;SDS011;34369;51.174;6.738;2024-03-23T09:31:55;39.65;;;36.97;;
48588;SDS011;34369;51.174;6.738;2024-03-23T09:34:28;40.53;;;37.65;;
48588;SDS011;34369;51.174;6.738;2024-03-23T09:37:03;39.72;;;37.13;;
48588;SDS011;34369;51.174;6.738;2024-03-23T09:39:37;41.72;;;38.67;;
48588;SDS011;34369;51.174;6.738;2024-03-23T09:42:12;39.38;;;36.83;;
48588;SDS011;34369;51.174;6.738;2024-03-23T09:44:46;39.38;;;36.60;;
48588;SDS011;34369;51.174;6.738;2024-03-23T09:47:22;39.22;;;36.67;;
48588;SDS011;34369;51.174;6.738;2024-03-23T09:49:57;40.05;;;37.28;;
48588;SDS011;34369;51.174;6.738;2024-03-23T09:52:34;39.72;;;37.13;;
48588;SDS011;34369;51.174;6.738;2024-03-23T09:55:09;39.67;;;37.15;;
48588;SDS011;34369;51.174;6.738;2024-03-23T09:57:42;40.97;;;38.08;;
48588;SDS011;34369;51.174;6.738;2024-03-23T10:00:16;38.35;;;35.95;;
48588;SDS011;34369;51.174;6.738;2024-03-23T10:02:49;40.67;;;37.63;;
48588;SDS011;34369;51.174;6.738;2024-03-23T10:05:22;38.72;;;36.33;;
48588;SDS011;34369;51.174;6.738;2024-03-23T10:07:59;39.07;;;36.47;;
48588;SDS011;34369;51.174;6.738;2024-03-23T10:10:49;39.47;;;36.88;;
48588;SDS011;34369;51.174;6.738;2024-03-23T10:13:25;37.97;;;35.47;;
48588;SDS011;34369;51.174;6.738;2024-03-23T10:16:00;38.25;;;35.50;;
48588;SDS011;34369;51.174;6.738;2024-03-23T10:18:32;38.80;;;36.22;;
48588;SDS011;34369;51.174;6.738;2024-03-23T10:21:10;39.78;;;37.25;;
48588;SDS011;34369;51.174;6.738;2024-03-23T10:23:45;39.25;;;36.70;;
48588;SDS011;34369;51.174;6.738;2024-03-23T10:26:21;39.90;;;37.20;;
48588;SDS011;34369;51.174;6.738;2024-03-23T10:28:56;39.05;;;36.40;;
48588;SDS011;34369;51.174;6.738;2024-03-23T10:31:32;38.55;;;36.22;;
48588;SDS011;34369;51.174;6.738;2024-03-23T10:34:06;38.47;;;36.13;;
48588;SDS011;34369;51.174;6.738;2024-03-23T10:36:40;38.77;;;36.43;;
48588;SDS011;34369;51.174;6.738;2024-03-23T10:39:16;39.30;;;37.00;;
48588;SDS011;34369;51.174;6.738;2024-03-23T10:41:52;38.97;;;36.58;;
48588;SDS011;34369;51.174;6.738;2024-03-23T10:44:27;39.25;;;36.85;;
48588;SDS011;34369;51.174;6.738;2024-03-23T10:47:02;39.13;;;36.80;;
48588;SDS011;34369;51.174;6.738;2024-03-23T10:49:35;40.33;;;37.73;;
48588;SDS011;34369;51.174;6.738;2024-03-23T10:52:09;39.80;;;37.37;;
48588;SDS011;34369;51.174;6.738;2024-03-23T10:54:43;40.10;;;37.80;;
48588;SDS011;34369;51.174;6.738;2024-03-23T10:57:20;40.70;;;38.30;;
48588;SDS011;34369;51.174;6.738;2024-03-23T10:59:59;39.20;;;36.70;;
48588;SDS011;34369;51.174;6.738;2024-03-23T11:02:36;38.83;;;36.58;;
48588;SDS011;34369;51.174;6.738;2024-03-23T11:05:28;40.73;;;38.27;;
48588;SDS011;34369;51.174;6.738;2024-03-23T11:08:05;39.87;;;37.47;;
48588;SDS011;34369;51.174;6.738;2024-03-23T11:10:39;40.57;;;38.27;;
48588;SDS011;34369;51.174;6.738;2024-03-23T11:13:21;40.27;;;37.97;;
48588;SDS011;34369;51.174;6.738;2024-03-23T11:15:54;40.17;;;37.87;;
48588;SDS011;34369;51.174;6.738;2024-03-23T11:18:28;41.00;;;38.70;;
48588;SDS011;34369;51.174;6.738;2024-03-23T11:21:01;39.67;;;37.37;;
48588;SDS011;34369;51.174;6.738;2024-03-23T11:23:35;40.77;;;38.37;;
48588;SDS011;34369;51.174;6.738;2024-03-23T11:26:09;39.80;;;37.40;;
48588;SDS011;34369;51.174;6.738;2024-03-23T11:28:45;39.42;;;36.83;;
48588;SDS011;34369;51.174;6.738;2024-03-23T11:31:17;40.40;;;38.10;;
48588;SDS011;34369;51.174;6.738;2024-03-23T11:34:02;39.03;;;36.63;;
48588;SDS011;34369;51.174;6.738;2024-03-23T11:36:35;38.03;;;35.83;;
48588;SDS011;34369;51.174;6.738;2024-03-23T11:39:12;38.70;;;36.20;;
48588;SDS011;34369;51.174;6.738;2024-03-23T11:41:49;38.27;;;35.73;;
48588;SDS011;34369;51.174;6.738;2024-03-23T11:44:26;38.10;;;35.80;;
48588;SDS011;34369;51.174;6.738;2024-03-23T11:47:07;39.10;;;36.70;;
48588;SDS011;34369;51.174;6.738;2024-03-23T11:49:41;39.28;;;36.88;;
48588;SDS011;34369;51.174;6.738;2024-03-23T11:52:14;37.60;;;35.30;;
48588;SDS011;34369;51.174;6.738;2024-03-23T11:54:49;37.75;;;35.40;;
48588;SDS011;34369;51.174;6.738;2024-03-23T11:57:24;36.40;;;34.30;;
48588;SDS011;34369;51.174;6.738;2024-03-23T11:59:57;37.38;;;35.17;;
48588;SDS011;34369;51.174;6.738;2024-03-23T12:02:30;37.58;;;35.28;;
48588;SDS011;34369;51.174;6.738;2024-03-23T12:05:13;38.42;;;36.22;;
48588;SDS011;34369;51.174;6.738;2024-03-23T12:07:47;39.65;;;37.10;;
48588;SDS011;34369;51.174;6.738;2024-03-23T12:10:21;38.90;;;36.63;;
48588;SDS011;34369;51.174;6.738;2024-03-23T12:13:08;40.20;;;37.90;;
48588;SDS011;34369;51.174;6.738;2024-03-23T12:15:41;40.83;;;38.40;;
48588;SDS011;34369;51.174;6.738;2024-03-23T12:18:16;40.83;;;38.43;;
48588;SDS011;34369;51.174;6.738;2024-03-23T12:20:49;39.77;;;37.37;;
48588;SDS011;34369;51.174;6.738;2024-03-23T12:23:22;40.93;;;38.40;;
48588;SDS011;34369;51.174;6.738;2024-03-23T12:25:57;41.07;;;38.57;;
48588;SDS011;34369;51.174;6.738;2024-03-23T12:28:32;39.47;;;37.17;;
48588;SDS011;34369;51.174;6.738;2024-03-23T12:31:07;40.87;;;38.47;;
48588;SDS011;34369;51.174;6.738;2024-03-23T12:33:40;39.70;;;37.30;;
48588;SDS011;34369;51.174;6.738;2024-03-23T12:36:15;39.43;;;37.13;;
48588;SDS011;34369;51.174;6.738;2024-03-23T12:38:47;39.90;;;37.60;;
48588;SDS011;34369;51.174;6.738;2024-03-23T12:41:21;40.07;;;37.73;;
48588;SDS011;34369;51.174;6.738;2024-03-23T12:43:55;40.27;;;37.93;;
48588;SDS011;34369;51.174;6.738;2024-03-23T12:46:29;41.00;;;38.70;;
48588;SDS011;34369;51.174;6.738;2024-03-23T12:49:03;39.80;;;37.50;;
48588;SDS011;34369;51.174;6.738;2024-03-23T12:51:37;37.90;;;35.70;;
48588;SDS011;34369;51.174;6.738;2024-03-23T12:54:10;37.08;;;34.88;;
48588;SDS011;34369;51.174;6.738;2024-03-23T12:56:45;37.28;;;35.08;;
48588;SDS011;34369;51.174;6.738;2024-03-23T12:59:19;37.45;;;35.25;;
48588;SDS011;34369;51.174;6.738;2024-03-23T13:01:53;37.80;;;35.60;;
48588;SDS011;34369;51.174;6.738;2024-03-23T13:04:26;37.08;;;34.97;;
48588;SDS011;34369;51.174;6.738;2024-03-23T13:07:00;38.30;;;36.00;;
48588;SDS011;34369;51.174;6.738;2024-03-23T13:09:32;37.92;;;35.63;;
48588;SDS011;34369;51.174;6.738;2024-03-23T13:12:06;37.83;;;35.53;;
48588;SDS011;34369;51.174;6.738;2024-03-23T13:14:42;38.63;;;36.33;;
48588;SDS011;34369;51.174;6.738;2024-03-23T13:17:16;38.15;;;35.85;;
48588;SDS011;34369;51.174;6.738;2024-03-23T13:19:49;38.10;;;35.90;;
48588;SDS011;34369;51.174;6.738;2024-03-23T13:22:23;38.67;;;36.47;;
48588;SDS011;34369;51.174;6.738;2024-03-23T13:24:55;37.13;;;34.90;;
48588;SDS011;34369;51.174;6.738;2024-03-23T13:27:30;37.65;;;35.38;;
48588;SDS011;34369;51.174;6.738;2024-03-23T13:30:06;36.95;;;34.83;;
48588;SDS011;34369;51.174;6.738;2024-03-23T13:32:42;35.90;;;33.80;;
48588;SDS011;34369;51.174;6.738;2024-03-23T13:35:15;36.60;;;34.40;;
48588;SDS011;34369;51.174;6.738;2024-03-23T13:37:48;36.28;;;33.97;;
48588;SDS011;34369;51.174;6.738;2024-03-23T13:40:22;36.88;;;34.58;;
48588;SDS011;34369;51.174;6.738;2024-03-23T13:42:54;36.03;;;33.92;;
48588;SDS011;34369;51.174;6.738;2024-03-23T13:45:30;36.63;;;34.42;;
48588;SDS011;34369;51.174;6.738;2024-03-23T13:48:03;38.28;;;35.88;;
48588;SDS011;34369;51.174;6.738;2024-03-23T13:50:38;37.92;;;35.53;;
48588;SDS011;34369;51.174;6.738;2024-03-23T13:53:11;38.63;;;36.33;;
48588;SDS011;34369;51.174;6.738;2024-03-23T13:55:47;38.83;;;36.50;;
48588;SDS011;34369;51.174;6.738;2024-03-23T13:58:20;39.08;;;36.67;;
48588;SDS011;34369;51.174;6.738;2024-03-23T14:00:57;38.77;;;36.57;;
48588;SDS011;34369;51.174;6.738;2024-03-23T14:03:30;37.20;;;35.00;;
48588;SDS011;34369;51.174;6.738;2024-03-23T14:06:05;35.90;;;33.80;;
48588;SDS011;34369;51.174;6.738;2024-03-23T14:08:38;37.63;;;35.40;;
48588;SDS011;34369;51.174;6.738;2024-03-23T14:11:13;35.72;;;33.53;;
48588;SDS011;34369;51.174;6.738;2024-03-23T14:13:46;36.58;;;34.33;;
48588;SDS011;34369;51.174;6.738;2024-03-23T14:16:23;36.60;;;34.30;;
48588;SDS011;34369;51.174;6.738;2024-03-23T14:18:57;36.15;;;33.95;;
48588;SDS011;34369;51.174;6.738;2024-03-23T14:21:32;36.22;;;33.92;;
48588;SDS011;34369;51.174;6.738;2024-03-23T14:24:05;36.97;;;34.70;;
48588;SDS011;34369;51.174;6.738;2024-03-23T14:26:42;36.67;;;34.47;;
48588;SDS011;34369;51.174;6.738;2024-03-23T14:29:15;36.63;;;34.42;;
48588;SDS011;34369;51.174;6.738;2024-03-23T14:31:50;37.47;;;35.17;;
48588;SDS011;34369;51.174;6.738;2024-03-23T14:34:22;37.33;;;35.22;;
48588;SDS011;34369;51.174;6.738;2024-03-23T14:37:00;38.30;;;36.10;;
48588;SDS011;34369;51.174;6.738;2024-03-23T14:39:34;38.47;;;36.17;;
48588;SDS011;34369;51.174;6.738;2024-03-23T14:42:09;39.33;;;36.93;;
48588;SDS011;34369;51.174;6.738;2024-03-23T14:44:41;38.80;;;36.60;;
48588;SDS011;34369;51.174;6.738;2024-03-23T14:47:17;40.17;;;37.87;;
48588;SDS011;34369;51.174;6.738;2024-03-23T14:49:49;39.67;;;37.20;;
48588;SDS011;34369;51.174;6.738;2024-03-23T14:52:23;39.00;;;36.80;;
48588;SDS011;34369;51.174;6.738;2024-03-23T14:54:55;37.50;;;35.30;;
48588;SDS011;34369;51.174;6.738;2024-03-23T14:57:29;39.07;;;36.77;;
48588;SDS011;34369;51.174;6.738;2024-03-23T15:00:02;40.27;;;37.97;;
48588;SDS011;34369;51.174;6.738;2024-03-23T15:02:39;40.47;;;38.08;;
48588;SDS011;34369;51.174;6.738;2024-03-23T15:05:13;40.00;;;37.60;;
48588;SDS011;34369;51.174;6.738;2024-03-23T15:07:47;40.67;;;38.23;;
48588;SDS011;34369;51.174;6.738;2024-03-23T15:10:19;39.70;;;37.40;;
48588;SDS011;34369;51.174;6.738;2024-03-23T15:12:54;39.20;;;36.73;;
48588;SDS011;34369;51.174;6.738;2024-03-23T15:15:27;37.37;;;35.27;;
48588;SDS011;34369;51.174;6.738;2024-03-23T15:18:04;39.55;;;36.95;;
48588;SDS011;34369;51.174;6.738;2024-03-23T15:20:37;38.80;;;35.97;;
48588;SDS011;34369;51.174;6.738;2024-03-23T15:23:11;38.70;;;36.50;;
48588;SDS011;34369;51.174;6.738;2024-03-23T15:25:43;37.80;;;35.60;;
48588;SDS011;34369;51.174;6.738;2024-03-23T15:28:17;38.07;;;35.77;;
48588;SDS011;34369;51.174;6.738;2024-03-23T15:30:49;38.73;;;36.50;;
48588;SDS011;34369;51.174;6.738;2024-03-23T15:33:26;38.03;;;35.75;;
48588;SDS011;34369;51.174;6.738;2024-03-23T15:36:00;38.33;;;36.05;;
48588;SDS011;34369;51.174;6.738;2024-03-23T15:38:34;37.87;;;35.47;;
48588;SDS011;34369;51.174;6.738;2024-03-23T15:41:09;37.97;;;35.75;;
48588;SDS011;34369;51.174;6.738;2024-03-23T15:43:43;38.17;;;35.77;;
48588;SDS011;34369;51.174;6.738;2024-03-23T15:46:16;38.60;;;36.40;;
48588;SDS011;34369;51.174;6.738;2024-03-23T15:48:51;38.47;;;36.10;;
48588;SDS011;34369;51.174;6.738;2024-03-23T15:51:25;38.72;;;36.45;;
48588;SDS011;34369;51.174;6.738;2024-03-23T15:54:03;37.90;;;35.70;;
48588;SDS011;34369;51.174;6.738;2024-03-23T15:56:35;38.00;;;35.70;;
48588;SDS011;34369;51.174;6.738;2024-03-23T15:59:09;38.97;;;36.57;;
48588;SDS011;34369;51.174;6.738;2024-03-23T16:01:42;39.13;;;36.87;;
48588;SDS011;34369;51.174;6.738;2024-03-23T16:04:19;40.43;;;38.03;;
48588;SDS011;34369;51.174;6.738;2024-03-23T16:06:52;38.83;;;36.60;;
48588;SDS011;34369;51.174;6.738;2024-03-23T16:09:27;39.27;;;36.97;;
48588;SDS011;34369;51.174;6.738;2024-03-23T16:12:00;39.27;;;37.00;;
48588;SDS011;34369;51.174;6.738;2024-03-23T16:14:35;40.90;;;38.40;;
48588;SDS011;34369;51.174;6.738;2024-03-23T16:17:07;39.10;;;36.70;;
48588;SDS011;34369;51.174;6.738;2024-03-23T16:19:47;39.77;;;37.40;;
48588;SDS011;34369;51.174;6.738;2024-03-23T16:22:21;40.27;;;37.97;;
48588;SDS011;34369;51.174;6.738;2024-03-23T16:24:55;39.00;;;36.70;;
48588;SDS011;34369;51.174;6.738;2024-03-23T16:27:27;38.93;;;36.67;;
48588;SDS011;34369;51.174;6.738;2024-03-23T16:30:02;38.60;;;36.40;;
48588;SDS011;34369;51.174;6.738;2024-03-23T16:32:35;39.37;;;37.07;;
48588;SDS011;34369;51.174;6.738;2024-03-23T16:35:15;39.03;;;36.67;;
48588;SDS011;34369;51.174;6.738;2024-03-23T16:37:48;38.50;;;36.20;;
48588;SDS011;34369;51.174;6.738;2024-03-23T16:40:22;38.33;;;36.03;;
48588;SDS011;34369;51.174;6.738;2024-03-23T16:42:55;38.05;;;35.83;;
48588;SDS011;34369;51.174;6.738;2024-03-23T16:45:29;38.37;;;36.17;;
48588;SDS011;34369;51.174;6.738;2024-03-23T16:48:02;37.70;;;35.43;;
48588;SDS011;34369;51.174;6.738;2024-03-23T16:50:37;37.70;;;35.50;;
48588;SDS011;34369;51.174;6.738;2024-03-23T16:53:13;38.03;;;35.73;;
48588;SDS011;34369;51.174;6.738;2024-03-23T16:55:54;38.83;;;36.60;;
48588;SDS011;34369;51.174;6.738;2024-03-23T16:58:28;38.23;;;35.93;;
48588;SDS011;34369;51.174;6.738;2024-03-23T17:01:03;39.03;;;36.73;;
48588;SDS011;34369;51.174;6.738;2024-03-23T17:03:39;38.88;;;36.58;;
48588;SDS011;34369;51.174;6.738;2024-03-23T17:06:16;39.17;;;36.87;;
48588;SDS011;34369;51.174;6.738;2024-03-23T17:08:48;39.13;;;36.83;;
48588;SDS011;34369;51.174;6.738;2024-03-23T17:11:23;39.80;;;37.50;;
48588;SDS011;34369;51.174;6.738;2024-03-23T17:13:56;39.30;;;36.90;;